Huvudsida
METAR-TAF:

METAR-TAF

Flygplatser :

Normanton Airport

Normanton, Australien

latitud: 17-41-06S, longitud: 141-04-12E, höjd: 22 m

Aktuellt väderrapport

Denna rapport gjordes för 1 timme och 19 minuter sedan, klockan 19:00 UTC
Vind 4 kt från syd
Temperatur 22°C
Fuktighet 15%
Tryck 1015 hPa
Sikt 10 km eller mer

METAR: YNTN 211900Z AUTO 18004KT 9999 // NCD 22/M06 Q1015

Tid: 06:19 (20:19 UTC)


TAF: saknas

Aktuella väderrapporter och prognoser från 4000 flygplatser (METAR- och TAF-rapporter).

De tillgängliga stationerna syns som gula och röda prickar på kartan.

För musen över prickarna för att se namnen på stationerna.

Klicka sedan för att få väderrapporter och prognoser.

För att ändra kartan: Klicka på de gröna knapparna med ett svart kors på för att zooma in; den gröna knappen med ett streck på för att zooma ut; eller på de gröna pilarna för angränsande kartor.


METAR-TAF: